sensor_id;sensor_type;location;lat;lon;timestamp;pressure;altitude;pressure_sealevel;temperature;humidity
19005;BME280;9635;52.078;8.648;2023-04-12T00:00:42;99696.16;;;6.40;54.56
19005;BME280;9635;52.078;8.648;2023-04-12T00:05:45;99678.69;;;6.36;54.49
19005;BME280;9635;52.078;8.648;2023-04-12T00:10:50;99661.78;;;6.25;55.36
19005;BME280;9635;52.078;8.648;2023-04-12T00:15:53;99650.72;;;6.18;55.45
19005;BME280;9635;52.078;8.648;2023-04-12T00:20:56;99640.09;;;6.29;55.21
19005;BME280;9635;52.078;8.648;2023-04-12T00:26:00;99623.75;;;6.34;55.06
19005;BME280;9635;52.078;8.648;2023-04-12T00:31:03;99613.47;;;6.40;55.09
19005;BME280;9635;52.078;8.648;2023-04-12T00:36:08;99603.50;;;6.31;55.21
19005;BME280;9635;52.078;8.648;2023-04-12T00:41:13;99585.47;;;6.46;54.95
19005;BME280;9635;52.078;8.648;2023-04-12T00:46:16;99575.06;;;6.54;54.64
19005;BME280;9635;52.078;8.648;2023-04-12T00:51:20;99583.66;;;6.58;54.94
19005;BME280;9635;52.078;8.648;2023-04-12T00:56:24;99567.19;;;6.53;55.15
19005;BME280;9635;52.078;8.648;2023-04-12T01:01:28;99554.81;;;6.52;55.45
19005;BME280;9635;52.078;8.648;2023-04-12T01:06:40;99558.06;;;6.55;55.09
19005;BME280;9635;52.078;8.648;2023-04-12T01:11:58;99549.34;;;6.53;55.07
19005;BME280;9635;52.078;8.648;2023-04-12T01:17:05;99545.59;;;6.56;55.47
19005;BME280;9635;52.078;8.648;2023-04-12T01:22:12;99533.19;;;6.44;55.37
19005;BME280;9635;52.078;8.648;2023-04-12T01:27:30;99519.63;;;6.58;55.62
19005;BME280;9635;52.078;8.648;2023-04-12T01:32:37;99520.97;;;6.52;55.92
19005;BME280;9635;52.078;8.648;2023-04-12T01:37:40;99499.00;;;6.60;56.08
19005;BME280;9635;52.078;8.648;2023-04-12T01:42:45;99487.41;;;6.61;56.15
19005;BME280;9635;52.078;8.648;2023-04-12T01:47:48;99462.16;;;6.43;56.65
19005;BME280;9635;52.078;8.648;2023-04-12T01:52:54;99453.75;;;6.47;56.55
19005;BME280;9635;52.078;8.648;2023-04-12T01:58:07;99455.72;;;6.45;56.36
19005;BME280;9635;52.078;8.648;2023-04-12T02:03:12;99459.84;;;6.60;56.29
19005;BME280;9635;52.078;8.648;2023-04-12T02:08:15;99451.13;;;6.58;56.17
19005;BME280;9635;52.078;8.648;2023-04-12T02:13:21;99445.03;;;6.68;56.01
19005;BME280;9635;52.078;8.648;2023-04-12T02:18:23;99438.38;;;6.62;56.16
19005;BME280;9635;52.078;8.648;2023-04-12T02:23:26;99426.97;;;6.49;56.88
19005;BME280;9635;52.078;8.648;2023-04-12T02:28:31;99416.66;;;6.44;57.42
19005;BME280;9635;52.078;8.648;2023-04-12T02:33:35;99400.53;;;6.57;57.25
19005;BME280;9635;52.078;8.648;2023-04-12T02:38:42;99401.13;;;6.60;57.11
19005;BME280;9635;52.078;8.648;2023-04-12T02:43:47;99391.34;;;6.61;57.28
19005;BME280;9635;52.078;8.648;2023-04-12T02:48:50;99377.38;;;6.57;57.51
19005;BME280;9635;52.078;8.648;2023-04-12T02:53:55;99361.50;;;6.56;57.89
19005;BME280;9635;52.078;8.648;2023-04-12T02:59:04;99359.28;;;6.50;58.10
19005;BME280;9635;52.078;8.648;2023-04-12T03:04:29;99353.25;;;6.59;57.93
19005;BME280;9635;52.078;8.648;2023-04-12T03:09:34;99349.31;;;6.74;57.58
19005;BME280;9635;52.078;8.648;2023-04-12T03:14:41;99342.88;;;6.77;57.56
19005;BME280;9635;52.078;8.648;2023-04-12T03:19:44;99327.22;;;6.83;57.35
19005;BME280;9635;52.078;8.648;2023-04-12T03:24:53;99329.16;;;6.93;57.47
19005;BME280;9635;52.078;8.648;2023-04-12T03:29:58;99307.94;;;6.91;57.41
19005;BME280;9635;52.078;8.648;2023-04-12T03:35:01;99297.84;;;6.95;57.44
19005;BME280;9635;52.078;8.648;2023-04-12T03:40:06;99293.19;;;7.08;57.38
19005;BME280;9635;52.078;8.648;2023-04-12T03:45:11;99298.00;;;7.14;57.91
19005;BME280;9635;52.078;8.648;2023-04-12T03:50:18;99286.03;;;7.30;58.28
19005;BME280;9635;52.078;8.648;2023-04-12T03:55:27;99269.34;;;7.37;58.97
19005;BME280;9635;52.078;8.648;2023-04-12T04:00:34;99258.97;;;7.44;60.45
19005;BME280;9635;52.078;8.648;2023-04-12T04:05:41;99244.81;;;7.53;62.21
19005;BME280;9635;52.078;8.648;2023-04-12T04:10:45;99221.84;;;7.41;63.22
19005;BME280;9635;52.078;8.648;2023-04-12T04:15:55;99216.81;;;7.26;64.38
19005;BME280;9635;52.078;8.648;2023-04-12T04:21:01;99212.41;;;7.16;65.55
19005;BME280;9635;52.078;8.648;2023-04-12T04:26:07;99193.72;;;6.95;66.03
19005;BME280;9635;52.078;8.648;2023-04-12T04:31:19;99177.38;;;7.09;65.96
19005;BME280;9635;52.078;8.648;2023-04-12T04:36:24;99162.78;;;7.13;64.67
19005;BME280;9635;52.078;8.648;2023-04-12T04:41:29;99166.41;;;7.12;64.00
19005;BME280;9635;52.078;8.648;2023-04-12T04:46:37;99140.72;;;7.42;62.87
19005;BME280;9635;52.078;8.648;2023-04-12T04:51:40;99131.53;;;7.35;62.29
19005;BME280;9635;52.078;8.648;2023-04-12T04:56:46;99108.25;;;7.46;62.11
19005;BME280;9635;52.078;8.648;2023-04-12T05:01:52;99104.72;;;7.46;62.06
19005;BME280;9635;52.078;8.648;2023-04-12T05:06:55;99102.25;;;7.23;61.14
19005;BME280;9635;52.078;8.648;2023-04-12T05:12:00;99094.19;;;7.54;60.92
19005;BME280;9635;52.078;8.648;2023-04-12T05:17:04;99095.75;;;7.57;60.66
19005;BME280;9635;52.078;8.648;2023-04-12T05:22:07;99093.94;;;7.67;60.53
19005;BME280;9635;52.078;8.648;2023-04-12T05:27:11;99086.34;;;7.62;60.98
19005;BME280;9635;52.078;8.648;2023-04-12T05:32:15;99076.66;;;7.71;60.56
19005;BME280;9635;52.078;8.648;2023-04-12T05:37:18;99051.75;;;7.70;61.54
19005;BME280;9635;52.078;8.648;2023-04-12T05:42:20;99058.38;;;7.86;61.03
19005;BME280;9635;52.078;8.648;2023-04-12T05:47:25;99041.94;;;8.00;60.95
19005;BME280;9635;52.078;8.648;2023-04-12T05:52:30;99026.31;;;8.05;60.66
19005;BME280;9635;52.078;8.648;2023-04-12T05:57:34;99028.16;;;7.85;61.40
19005;BME280;9635;52.078;8.648;2023-04-12T06:02:38;99023.91;;;8.22;61.03
19005;BME280;9635;52.078;8.648;2023-04-12T06:07:42;99006.72;;;8.24;61.06
19005;BME280;9635;52.078;8.648;2023-04-12T06:12:47;99002.38;;;8.23;61.29
19005;BME280;9635;52.078;8.648;2023-04-12T06:17:53;99002.22;;;8.34;61.41
19005;BME280;9635;52.078;8.648;2023-04-12T06:22:56;98999.44;;;8.07;62.12
19005;BME280;9635;52.078;8.648;2023-04-12T06:27:59;98984.22;;;8.07;62.42
19005;BME280;9635;52.078;8.648;2023-04-12T06:33:03;98987.00;;;8.35;62.32
19005;BME280;9635;52.078;8.648;2023-04-12T06:38:06;98974.91;;;8.50;61.79
19005;BME280;9635;52.078;8.648;2023-04-12T06:43:09;98954.75;;;8.36;62.49
19005;BME280;9635;52.078;8.648;2023-04-12T06:48:13;98964.03;;;8.42;62.11
19005;BME280;9635;52.078;8.648;2023-04-12T06:53:16;98939.06;;;8.61;62.22
19005;BME280;9635;52.078;8.648;2023-04-12T06:58:19;98951.25;;;8.46;62.69
19005;BME280;9635;52.078;8.648;2023-04-12T07:03:23;98929.03;;;8.16;65.08
19005;BME280;9635;52.078;8.648;2023-04-12T07:08:28;98916.25;;;8.10;66.64
19005;BME280;9635;52.078;8.648;2023-04-12T07:13:31;98909.00;;;7.63;68.65
19005;BME280;9635;52.078;8.648;2023-04-12T07:18:36;98903.75;;;7.81;69.27
19005;BME280;9635;52.078;8.648;2023-04-12T07:23:41;98892.22;;;7.90;70.21
19005;BME280;9635;52.078;8.648;2023-04-12T07:28:43;98890.09;;;7.94;71.11
19005;BME280;9635;52.078;8.648;2023-04-12T07:33:48;98890.50;;;7.89;71.61
19005;BME280;9635;52.078;8.648;2023-04-12T07:38:51;98882.66;;;7.78;71.79
19005;BME280;9635;52.078;8.648;2023-04-12T07:43:56;98874.50;;;7.70;73.30
19005;BME280;9635;52.078;8.648;2023-04-12T07:49:00;98857.50;;;7.71;74.35
19005;BME280;9635;52.078;8.648;2023-04-12T07:54:04;98852.41;;;7.87;75.37
19005;BME280;9635;52.078;8.648;2023-04-12T07:59:06;98830.16;;;7.87;75.78
19005;BME280;9635;52.078;8.648;2023-04-12T08:04:11;98839.50;;;7.63;76.29
19005;BME280;9635;52.078;8.648;2023-04-12T08:09:14;98822.13;;;7.97;75.71
19005;BME280;9635;52.078;8.648;2023-04-12T08:14:16;98823.91;;;7.59;77.20
19005;BME280;9635;52.078;8.648;2023-04-12T08:19:21;98817.25;;;7.72;78.20
19005;BME280;9635;52.078;8.648;2023-04-12T08:24:23;98806.66;;;7.90;77.52
19005;BME280;9635;52.078;8.648;2023-04-12T08:29:26;98817.25;;;7.82;78.56
19005;BME280;9635;52.078;8.648;2023-04-12T08:34:30;98802.72;;;8.22;78.81
19005;BME280;9635;52.078;8.648;2023-04-12T08:39:33;98815.78;;;7.98;78.55
19005;BME280;9635;52.078;8.648;2023-04-12T08:44:36;98799.22;;;7.84;78.82
19005;BME280;9635;52.078;8.648;2023-04-12T08:49:41;98790.16;;;7.58;78.29
19005;BME280;9635;52.078;8.648;2023-04-12T08:54:43;98776.50;;;7.51;79.15
19005;BME280;9635;52.078;8.648;2023-04-12T08:59:46;98775.22;;;7.65;78.53
19005;BME280;9635;52.078;8.648;2023-04-12T09:04:52;98777.50;;;7.97;78.61
19005;BME280;9635;52.078;8.648;2023-04-12T09:09:57;98752.84;;;8.31;78.09
19005;BME280;9635;52.078;8.648;2023-04-12T09:15:07;98753.03;;;7.92;77.19
19005;BME280;9635;52.078;8.648;2023-04-12T09:20:23;98750.25;;;8.39;78.25
19005;BME280;9635;52.078;8.648;2023-04-12T09:25:44;98725.31;;;8.66;77.08
19005;BME280;9635;52.078;8.648;2023-04-12T09:30:50;98712.09;;;8.47;76.92
19005;BME280;9635;52.078;8.648;2023-04-12T09:35:58;98728.09;;;8.56;76.40
19005;BME280;9635;52.078;8.648;2023-04-12T09:41:14;98724.44;;;8.75;75.79
19005;BME280;9635;52.078;8.648;2023-04-12T09:46:21;98696.97;;;9.17;74.98
19005;BME280;9635;52.078;8.648;2023-04-12T09:51:26;98690.97;;;8.79;74.67
19005;BME280;9635;52.078;8.648;2023-04-12T09:56:31;98686.66;;;9.57;73.41
19005;BME280;9635;52.078;8.648;2023-04-12T10:01:37;98684.19;;;9.89;71.01
19005;BME280;9635;52.078;8.648;2023-04-12T10:06:42;98706.72;;;10.05;70.13
19005;BME280;9635;52.078;8.648;2023-04-12T10:11:47;98665.50;;;10.22;69.71
19005;BME280;9635;52.078;8.648;2023-04-12T10:16:54;98688.09;;;10.03;68.53
19005;BME280;9635;52.078;8.648;2023-04-12T10:21:59;98651.78;;;9.83;69.55
19005;BME280;9635;52.078;8.648;2023-04-12T10:27:04;98658.19;;;9.90;69.60
19005;BME280;9635;52.078;8.648;2023-04-12T10:32:20;98651.44;;;10.36;68.83
19005;BME280;9635;52.078;8.648;2023-04-12T10:37:56;98650.84;;;9.58;69.98
19005;BME280;9635;52.078;8.648;2023-04-12T10:43:24;98634.25;;;9.88;70.10
19005;BME280;9635;52.078;8.648;2023-04-12T10:48:29;98634.72;;;9.49;71.46
19005;BME280;9635;52.078;8.648;2023-04-12T10:53:34;98629.16;;;9.77;73.29
19005;BME280;9635;52.078;8.648;2023-04-12T10:58:54;98638.81;;;9.70;72.89
19005;BME280;9635;52.078;8.648;2023-04-12T11:04:20;98630.66;;;9.80;74.33
19005;BME280;9635;52.078;8.648;2023-04-12T11:09:41;98629.59;;;9.99;73.52
19005;BME280;9635;52.078;8.648;2023-04-12T11:15:05;98621.66;;;9.89;74.55
19005;BME280;9635;52.078;8.648;2023-04-12T11:20:25;98624.06;;;9.66;73.62
19005;BME280;9635;52.078;8.648;2023-04-12T11:25:30;98617.72;;;9.75;73.32
19005;BME280;9635;52.078;8.648;2023-04-12T11:30:33;98614.31;;;9.91;72.82
19005;BME280;9635;52.078;8.648;2023-04-12T11:35:36;98609.66;;;9.67;72.78
19005;BME280;9635;52.078;8.648;2023-04-12T11:40:41;98595.06;;;10.12;72.80
19005;BME280;9635;52.078;8.648;2023-04-12T11:45:44;98581.66;;;10.20;72.06
19005;BME280;9635;52.078;8.648;2023-04-12T11:50:46;98596.28;;;10.34;70.38
19005;BME280;9635;52.078;8.648;2023-04-12T11:56:10;98598.06;;;10.09;70.61
19005;BME280;9635;52.078;8.648;2023-04-12T12:01:13;98590.34;;;9.98;71.55
19005;BME280;9635;52.078;8.648;2023-04-12T12:06:16;98584.06;;;10.64;70.56
19005;BME280;9635;52.078;8.648;2023-04-12T12:11:22;98585.38;;;10.76;70.33
19005;BME280;9635;52.078;8.648;2023-04-12T12:16:26;98586.22;;;10.69;70.15
19005;BME280;9635;52.078;8.648;2023-04-12T12:21:29;98588.06;;;10.60;69.85
19005;BME280;9635;52.078;8.648;2023-04-12T12:26:34;98574.16;;;10.48;70.19
19005;BME280;9635;52.078;8.648;2023-04-12T12:31:44;98586.75;;;10.48;70.58
19005;BME280;9635;52.078;8.648;2023-04-12T12:36:53;98565.75;;;10.27;71.33
19005;BME280;9635;52.078;8.648;2023-04-12T12:41:58;98561.06;;;10.37;71.87
19005;BME280;9635;52.078;8.648;2023-04-12T12:47:03;98569.59;;;10.32;71.86
19005;BME280;9635;52.078;8.648;2023-04-12T12:52:15;98567.59;;;10.51;71.77
19005;BME280;9635;52.078;8.648;2023-04-12T12:57:19;98568.94;;;10.55;71.49
19005;BME280;9635;52.078;8.648;2023-04-12T13:02:22;98555.66;;;10.86;70.90
19005;BME280;9635;52.078;8.648;2023-04-12T13:07:26;98562.53;;;10.72;71.33
19005;BME280;9635;52.078;8.648;2023-04-12T13:12:30;98562.38;;;10.57;72.01
19005;BME280;9635;52.078;8.648;2023-04-12T13:17:33;98569.13;;;10.45;73.37
19005;BME280;9635;52.078;8.648;2023-04-12T13:22:36;98563.22;;;10.25;75.41
19005;BME280;9635;52.078;8.648;2023-04-12T13:27:40;98554.53;;;10.31;76.30
19005;BME280;9635;52.078;8.648;2023-04-12T13:32:43;98544.78;;;10.30;76.24
19005;BME280;9635;52.078;8.648;2023-04-12T13:37:46;98539.25;;;10.32;76.38
19005;BME280;9635;52.078;8.648;2023-04-12T13:42:50;98542.94;;;10.39;76.10
19005;BME280;9635;52.078;8.648;2023-04-12T13:47:53;98540.25;;;10.47;76.57
19005;BME280;9635;52.078;8.648;2023-04-12T13:52:56;98533.06;;;10.48;75.89
19005;BME280;9635;52.078;8.648;2023-04-12T13:58:00;98535.06;;;10.54;74.58
19005;BME280;9635;52.078;8.648;2023-04-12T14:03:03;98530.53;;;10.46;74.84
19005;BME280;9635;52.078;8.648;2023-04-12T14:08:06;98534.38;;;10.35;76.11
19005;BME280;9635;52.078;8.648;2023-04-12T14:13:10;98534.72;;;10.16;76.99
19005;BME280;9635;52.078;8.648;2023-04-12T14:18:13;98529.19;;;10.26;76.36
19005;BME280;9635;52.078;8.648;2023-04-12T14:23:16;98526.81;;;10.23;76.13
19005;BME280;9635;52.078;8.648;2023-04-12T14:28:20;98508.72;;;10.08;74.71
19005;BME280;9635;52.078;8.648;2023-04-12T14:33:24;98507.56;;;10.27;73.28
19005;BME280;9635;52.078;8.648;2023-04-12T14:38:27;98494.41;;;10.73;71.16
19005;BME280;9635;52.078;8.648;2023-04-12T14:43:31;98508.06;;;11.11;69.15
19005;BME280;9635;52.078;8.648;2023-04-12T14:48:34;98518.16;;;11.17;68.51
19005;BME280;9635;52.078;8.648;2023-04-12T14:53:37;98516.00;;;10.96;68.79
19005;BME280;9635;52.078;8.648;2023-04-12T14:58:41;98533.13;;;10.95;69.14
19005;BME280;9635;52.078;8.648;2023-04-12T15:03:44;98528.97;;;10.76;71.01
19005;BME280;9635;52.078;8.648;2023-04-12T15:08:49;98534.84;;;11.44;68.67
19005;BME280;9635;52.078;8.648;2023-04-12T15:13:57;98532.00;;;11.37;68.09
19005;BME280;9635;52.078;8.648;2023-04-12T15:19:00;98529.06;;;12.09;66.85
19005;BME280;9635;52.078;8.648;2023-04-12T15:24:14;98529.22;;;12.39;65.88
19005;BME280;9635;52.078;8.648;2023-04-12T15:29:19;98522.25;;;12.30;65.39
19005;BME280;9635;52.078;8.648;2023-04-12T15:34:22;98516.13;;;12.36;65.34
19005;BME280;9635;52.078;8.648;2023-04-12T15:39:25;98526.25;;;11.80;65.90
19005;BME280;9635;52.078;8.648;2023-04-12T15:44:30;98535.63;;;11.61;65.21
19005;BME280;9635;52.078;8.648;2023-04-12T15:49:33;98543.44;;;11.70;63.63
19005;BME280;9635;52.078;8.648;2023-04-12T15:54:36;98544.34;;;11.15;63.08
19005;BME280;9635;52.078;8.648;2023-04-12T15:59:45;98537.16;;;11.55;62.32
19005;BME280;9635;52.078;8.648;2023-04-12T16:04:50;98530.97;;;11.78;61.85
19005;BME280;9635;52.078;8.648;2023-04-12T16:09:56;98520.47;;;11.60;58.78
19005;BME280;9635;52.078;8.648;2023-04-12T16:15:00;98537.19;;;11.47;59.69
19005;BME280;9635;52.078;8.648;2023-04-12T16:20:04;98543.31;;;11.33;57.38
19005;BME280;9635;52.078;8.648;2023-04-12T16:25:08;98549.09;;;11.53;57.81
19005;BME280;9635;52.078;8.648;2023-04-12T16:30:14;98547.88;;;11.16;57.70
19005;BME280;9635;52.078;8.648;2023-04-12T16:35:17;98559.56;;;10.59;58.81
19005;BME280;9635;52.078;8.648;2023-04-12T16:40:20;98570.09;;;10.85;59.20
19005;BME280;9635;52.078;8.648;2023-04-12T16:45:26;98606.97;;;8.98;67.43
19005;BME280;9635;52.078;8.648;2023-04-12T16:50:29;98634.25;;;7.39;76.01
19005;BME280;9635;52.078;8.648;2023-04-12T16:55:31;98633.13;;;6.85;81.42
19005;BME280;9635;52.078;8.648;2023-04-12T17:00:36;98653.50;;;6.47;85.57
19005;BME280;9635;52.078;8.648;2023-04-12T17:05:39;98647.28;;;6.85;83.94
19005;BME280;9635;52.078;8.648;2023-04-12T17:10:42;98651.66;;;6.77;83.89
19005;BME280;9635;52.078;8.648;2023-04-12T17:15:47;98655.47;;;6.94;82.23
19005;BME280;9635;52.078;8.648;2023-04-12T17:20:49;98655.56;;;7.12;81.48
19005;BME280;9635;52.078;8.648;2023-04-12T17:25:52;98666.56;;;6.99;79.58
19005;BME280;9635;52.078;8.648;2023-04-12T17:30:56;98675.41;;;7.09;79.06
19005;BME280;9635;52.078;8.648;2023-04-12T17:35:59;98693.25;;;6.70;78.77
19005;BME280;9635;52.078;8.648;2023-04-12T17:41:03;98705.50;;;6.92;78.33
19005;BME280;9635;52.078;8.648;2023-04-12T17:46:07;98714.72;;;7.17;78.05
19005;BME280;9635;52.078;8.648;2023-04-12T17:51:10;98727.53;;;6.94;78.66
19005;BME280;9635;52.078;8.648;2023-04-12T17:56:13;98739.47;;;7.09;77.43
19005;BME280;9635;52.078;8.648;2023-04-12T18:01:17;98752.41;;;7.14;77.30
19005;BME280;9635;52.078;8.648;2023-04-12T18:06:21;98769.25;;;7.14;77.90
19005;BME280;9635;52.078;8.648;2023-04-12T18:11:24;98776.44;;;6.94;77.74
19005;BME280;9635;52.078;8.648;2023-04-12T18:16:28;98768.94;;;7.46;78.01
19005;BME280;9635;52.078;8.648;2023-04-12T18:21:33;98769.19;;;7.53;78.82
19005;BME280;9635;52.078;8.648;2023-04-12T18:26:36;98760.94;;;7.37;78.11
19005;BME280;9635;52.078;8.648;2023-04-12T18:31:40;98752.97;;;7.17;78.24
19005;BME280;9635;52.078;8.648;2023-04-12T18:36:43;98752.69;;;7.11;78.64
19005;BME280;9635;52.078;8.648;2023-04-12T18:41:46;98748.00;;;6.74;77.99
19005;BME280;9635;52.078;8.648;2023-04-12T18:46:50;98738.19;;;6.84;77.94
19005;BME280;9635;52.078;8.648;2023-04-12T18:51:53;98749.16;;;6.81;77.71
19005;BME280;9635;52.078;8.648;2023-04-12T18:56:58;98768.13;;;6.78;77.61
19005;BME280;9635;52.078;8.648;2023-04-12T19:02:05;98775.25;;;6.68;77.96
19005;BME280;9635;52.078;8.648;2023-04-12T19:07:08;98767.53;;;6.74;77.41
19005;BME280;9635;52.078;8.648;2023-04-12T19:12:11;98768.25;;;6.76;77.39
19005;BME280;9635;52.078;8.648;2023-04-12T19:17:15;98775.81;;;6.71;77.40
19005;BME280;9635;52.078;8.648;2023-04-12T19:22:18;98779.75;;;6.67;77.96
19005;BME280;9635;52.078;8.648;2023-04-12T19:27:20;98784.66;;;6.62;78.09
19005;BME280;9635;52.078;8.648;2023-04-12T19:32:26;98781.69;;;6.46;78.28
19005;BME280;9635;52.078;8.648;2023-04-12T19:37:29;98782.91;;;6.32;77.85
19005;BME280;9635;52.078;8.648;2023-04-12T19:42:34;98786.34;;;6.53;77.27
19005;BME280;9635;52.078;8.648;2023-04-12T19:47:38;98775.06;;;6.50;76.88
19005;BME280;9635;52.078;8.648;2023-04-12T19:52:46;98769.91;;;6.58;76.35
19005;BME280;9635;52.078;8.648;2023-04-12T19:57:49;98778.22;;;6.65;76.57
19005;BME280;9635;52.078;8.648;2023-04-12T20:02:53;98776.25;;;6.67;76.81
19005;BME280;9635;52.078;8.648;2023-04-12T20:07:56;98796.31;;;6.61;76.92
19005;BME280;9635;52.078;8.648;2023-04-12T20:12:59;98800.34;;;6.55;77.15
19005;BME280;9635;52.078;8.648;2023-04-12T20:18:03;98787.72;;;6.48;77.29
19005;BME280;9635;52.078;8.648;2023-04-12T20:23:07;98796.97;;;6.44;76.91
19005;BME280;9635;52.078;8.648;2023-04-12T20:28:10;98794.31;;;6.44;76.91
19005;BME280;9635;52.078;8.648;2023-04-12T20:33:15;98795.03;;;6.46;76.78
19005;BME280;9635;52.078;8.648;2023-04-12T20:38:18;98804.41;;;6.50;76.48
19005;BME280;9635;52.078;8.648;2023-04-12T20:43:20;98788.56;;;6.48;76.51
19005;BME280;9635;52.078;8.648;2023-04-12T20:48:25;98805.97;;;6.43;75.39
19005;BME280;9635;52.078;8.648;2023-04-12T20:53:28;98799.63;;;6.44;74.28
19005;BME280;9635;52.078;8.648;2023-04-12T20:58:30;98796.69;;;6.37;73.42
19005;BME280;9635;52.078;8.648;2023-04-12T21:03:36;98796.78;;;6.26;72.72
19005;BME280;9635;52.078;8.648;2023-04-12T21:08:41;98793.53;;;6.22;72.40
19005;BME280;9635;52.078;8.648;2023-04-12T21:13:45;98792.69;;;6.22;72.26
19005;BME280;9635;52.078;8.648;2023-04-12T21:18:49;98792.84;;;6.20;72.45
19005;BME280;9635;52.078;8.648;2023-04-12T21:23:53;98796.84;;;6.05;72.88
19005;BME280;9635;52.078;8.648;2023-04-12T21:28:56;98784.63;;;6.02;72.99
19005;BME280;9635;52.078;8.648;2023-04-12T21:34:01;98782.81;;;6.03;72.99
19005;BME280;9635;52.078;8.648;2023-04-12T21:39:04;98785.03;;;5.98;72.52
19005;BME280;9635;52.078;8.648;2023-04-12T21:44:08;98785.84;;;5.88;72.31
19005;BME280;9635;52.078;8.648;2023-04-12T21:49:14;98789.31;;;5.79;72.33
19005;BME280;9635;52.078;8.648;2023-04-12T21:54:17;98792.47;;;5.73;72.78
19005;BME280;9635;52.078;8.648;2023-04-12T21:59:21;98783.25;;;5.77;72.47
19005;BME280;9635;52.078;8.648;2023-04-12T22:04:25;98779.03;;;5.75;72.65
19005;BME280;9635;52.078;8.648;2023-04-12T22:09:28;98773.16;;;5.71;72.95
19005;BME280;9635;52.078;8.648;2023-04-12T22:14:31;98785.16;;;5.65;73.08
19005;BME280;9635;52.078;8.648;2023-04-12T22:19:35;98775.34;;;5.66;73.40
19005;BME280;9635;52.078;8.648;2023-04-12T22:24:38;98778.56;;;5.60;73.71
19005;BME280;9635;52.078;8.648;2023-04-12T22:29:41;98774.78;;;5.62;73.70
19005;BME280;9635;52.078;8.648;2023-04-12T22:34:45;98783.63;;;5.63;73.93
19005;BME280;9635;52.078;8.648;2023-04-12T22:39:58;98789.69;;;5.75;73.29
19005;BME280;9635;52.078;8.648;2023-04-12T22:45:03;98786.84;;;5.66;73.41
19005;BME280;9635;52.078;8.648;2023-04-12T22:50:09;98782.69;;;5.73;73.07
19005;BME280;9635;52.078;8.648;2023-04-12T22:55:13;98781.97;;;5.71;72.60
19005;BME280;9635;52.078;8.648;2023-04-12T23:00:17;98776.91;;;5.68;72.37
19005;BME280;9635;52.078;8.648;2023-04-12T23:05:21;98774.78;;;5.62;72.38
19005;BME280;9635;52.078;8.648;2023-04-12T23:10:25;98778.47;;;5.71;71.82
19005;BME280;9635;52.078;8.648;2023-04-12T23:15:28;98773.41;;;5.68;71.51
19005;BME280;9635;52.078;8.648;2023-04-12T23:20:34;98761.88;;;5.67;71.01
19005;BME280;9635;52.078;8.648;2023-04-12T23:25:37;98768.59;;;5.62;71.00
19005;BME280;9635;52.078;8.648;2023-04-12T23:30:42;98753.03;;;5.57;71.35
19005;BME280;9635;52.078;8.648;2023-04-12T23:35:47;98748.34;;;5.49;71.32
19005;BME280;9635;52.078;8.648;2023-04-12T23:40:53;98743.03;;;5.49;71.25
19005;BME280;9635;52.078;8.648;2023-04-12T23:45:56;98757.09;;;5.61;70.63
19005;BME280;9635;52.078;8.648;2023-04-12T23:51:00;98766.81;;;5.41;71.27
19005;BME280;9635;52.078;8.648;2023-04-12T23:56:04;98751.97;;;5.48;70.56
